Time;durP1;ratioP1;P1;durP2;ratioP2;P2;SDS_P1;SDS_P2;PMS_P1;PMS_P2;Temp;Humidity;BMP_temperature;BMP_pressure;BME280_temperature;BME280_humidity;BME280_pressure;Samples;Min_cycle;Max_cycle;Signal;HPM_P1;HPM_P2
2021/07/11 00:00:42;;;;;;;;;;;;;;;22.25;99.33;98900.22;5045270;28;19920;-61
2021/07/11 00:03:08;;;;;;;;;;;;;;;22.24;100.00;98901.19;5053878;28;19921;-61
2021/07/11 00:05:35;;;;;;;;;;;;;;;22.19;99.22;98905.91;5066700;28;19921;-62
2021/07/11 00:08:00;;;;;;;;;;;;;;;22.23;99.65;98899.50;5059275;28;19919;-61
2021/07/11 00:10:26;;;;;;;;;;;;;;;22.17;99.23;98898.19;5069449;28;19912;-61
2021/07/11 00:12:51;;;;;;;;;;;;;;;22.18;100.00;98893.78;5063751;28;20393;-61
2021/07/11 00:15:18;;;;;;;;;;;;;;;22.29;100.00;98896.38;5052275;28;19920;-62
2021/07/11 00:17:44;;;;;;;;;;;;;;;22.18;96.51;98906.88;5055036;28;20429;-63
2021/07/11 00:20:11;;;;;;;;;;;;;;;22.10;100.00;98903.09;5068402;28;19991;-61
2021/07/11 00:22:37;;;;;;;;;;;;;;;22.14;100.00;98894.00;5072165;28;19912;-61
2021/07/11 00:25:04;;;;;;;;;;;;;;;21.88;100.00;98897.94;5057027;28;19947;-61
2021/07/11 00:27:30;;;;;;;;;;;;;;;22.14;100.00;98904.50;5055107;28;19972;-61
2021/07/11 00:29:56;;;;;;;;;;;;;;;22.17;100.00;98905.22;5062031;28;20007;-61
2021/07/11 00:32:22;;;;;;;;;;;;;;;22.17;100.00;98908.69;5051122;28;20316;-62
2021/07/11 00:34:48;;;;;;;;;;;;;;;22.16;100.00;98906.19;5053153;28;19913;-62
2021/07/11 00:37:13;;;;;;;;;;;;;;;22.22;100.00;98911.78;5064469;28;19912;-61
2021/07/11 00:39:38;;;;;;;;;;;;;;;22.22;100.00;98905.72;5054546;28;19917;-62
2021/07/11 00:42:04;;;;;;;;;;;;;;;22.23;100.00;98915.25;5067458;28;20020;-62
2021/07/11 00:44:30;;;;;;;;;;;;;;;22.23;100.00;98913.44;5055242;28;19955;-62
2021/07/11 00:46:55;;;;;;;;;;;;;;;21.93;100.00;98911.50;5065494;28;20298;-62
2021/07/11 00:49:21;;;;;;;;;;;;;;;21.17;100.00;98913.09;5052224;28;20416;-62
2021/07/11 00:51:46;;;;;;;;;;;;;;;21.79;100.00;98911.78;5051501;28;19913;-61
2021/07/11 00:54:12;;;;;;;;;;;;;;;21.26;100.00;98913.22;5063554;28;20000;-62
2021/07/11 00:56:38;;;;;;;;;;;;;;;21.23;100.00;98918.69;5052437;28;19919;-62
2021/07/11 00:59:04;;;;;;;;;;;;;;;21.21;100.00;98920.59;5034659;28;20573;-62
2021/07/11 01:01:33;;;;;;;;;;;;;;;21.74;100.00;98911.31;5055252;28;19999;-60
2021/07/11 01:04:01;;;;;;;;;;;;;;;21.66;100.00;98914.53;5054371;28;19973;-60
2021/07/11 01:06:27;;;;;;;;;;;;;;;21.21;100.00;98915.38;5069822;28;19916;-61
2021/07/11 01:09:01;;;;;;;;;;;;;;;21.35;100.00;98916.06;5053857;28;19999;-61
2021/07/11 01:11:28;;;;;;;;;;;;;;;20.50;100.00;98919.00;5053873;28;20000;-61
2021/07/11 01:13:54;;;;;;;;;;;;;;;20.59;100.00;98924.41;5064130;28;19912;-61
2021/07/11 01:16:22;;;;;;;;;;;;;;;21.49;100.00;98916.69;5039589;28;20276;-60
2021/07/11 01:18:47;;;;;;;;;;;;;;;21.83;100.00;98921.06;5050843;28;20007;-62
2021/07/11 01:21:14;;;;;;;;;;;;;;;21.77;100.00;98919.75;5041797;28;19913;-62
2021/07/11 01:23:50;;;;;;;;;;;;;;;21.29;100.00;98923.44;5038487;28;19924;-62
2021/07/11 01:26:16;;;;;;;;;;;;;;;21.40;100.00;98919.19;5070698;28;19916;-61
2021/07/11 01:28:42;;;;;;;;;;;;;;;20.78;100.00;98917.81;5040842;28;20329;-59
2021/07/11 01:31:09;;;;;;;;;;;;;;;21.33;100.00;98916.19;5061253;28;19913;-62
2021/07/11 01:33:36;;;;;;;;;;;;;;;21.48;100.00;98924.66;5058578;28;19912;-62
2021/07/11 01:36:01;;;;;;;;;;;;;;;21.70;100.00;98914.16;5035408;28;20473;-62
2021/07/11 01:38:27;;;;;;;;;;;;;;;21.03;100.00;98909.75;5063515;28;19913;-61
2021/07/11 01:40:53;;;;;;;;;;;;;;;20.43;100.00;98910.78;5065596;28;20007;-62
2021/07/11 01:43:20;;;;;;;;;;;;;;;20.57;100.00;98915.00;5058589;28;19916;-62
2021/07/11 01:45:46;;;;;;;;;;;;;;;21.08;100.00;98925.13;5072759;28;19925;-62
2021/07/11 01:48:13;;;;;;;;;;;;;;;21.10;100.00;98917.97;5058967;28;19920;-62
2021/07/11 01:50:40;;;;;;;;;;;;;;;20.22;100.00;98931.50;5048811;28;19912;-60
2021/07/11 01:53:05;;;;;;;;;;;;;;;20.59;100.00;98920.97;5065682;28;20125;-62
2021/07/11 01:55:31;;;;;;;;;;;;;;;20.88;100.00;98913.53;5059945;28;19916;-62
2021/07/11 01:57:56;;;;;;;;;;;;;;;21.10;100.00;98920.59;5053936;28;19919;-61
2021/07/11 02:00:23;;;;;;;;;;;;;;;21.38;100.00;98921.06;5061289;28;19912;-63
2021/07/11 02:02:49;;;;;;;;;;;;;;;21.54;100.00;98926.81;5037918;28;20011;-61
2021/07/11 02:05:15;;;;;;;;;;;;;;;21.11;100.00;98924.88;5050505;28;19958;-61
2021/07/11 02:07:40;;;;;;;;;;;;;;;20.96;100.00;98919.03;5042797;28;19917;-61
2021/07/11 02:10:06;;;;;;;;;;;;;;;21.55;100.00;98920.59;5069919;28;19920;-60
2021/07/11 02:12:32;;;;;;;;;;;;;;;21.47;100.00;98915.16;5065697;28;19913;-61
2021/07/11 02:14:59;;;;;;;;;;;;;;;19.95;100.00;98924.69;5058011;28;20367;-60
2021/07/11 02:17:26;;;;;;;;;;;;;;;20.81;100.00;98918.41;5039073;28;19926;-59
2021/07/11 02:19:51;;;;;;;;;;;;;;;20.34;100.00;98924.53;5046483;28;19913;-61
2021/07/11 02:22:17;;;;;;;;;;;;;;;20.31;100.00;98925.59;5055747;28;19912;-60
2021/07/11 02:24:43;;;;;;;;;;;;;;;20.56;100.00;98929.00;5052731;28;20385;-60
2021/07/11 02:27:09;;;;;;;;;;;;;;;20.30;100.00;98934.41;5065982;28;19912;-61
2021/07/11 02:29:39;;;;;;;;;;;;;;;20.51;100.00;98931.16;5038447;28;20008;-61
2021/07/11 02:32:05;;;;;;;;;;;;;;;20.95;100.00;98937.47;5049732;28;19913;-62
2021/07/11 02:34:31;;;;;;;;;;;;;;;20.84;100.00;98938.28;5050854;28;19987;-61
2021/07/11 02:36:56;;;;;;;;;;;;;;;20.72;100.00;98940.03;5049944;28;20311;-62
2021/07/11 02:39:22;;;;;;;;;;;;;;;21.04;100.00;98942.84;5039520;28;20603;-62
2021/07/11 02:41:49;;;;;;;;;;;;;;;21.10;100.00;98949.41;5058828;28;20286;-61
2021/07/11 02:44:15;;;;;;;;;;;;;;;21.25;100.00;98953.44;5060005;28;19917;-62
2021/07/11 02:46:41;;;;;;;;;;;;;;;20.02;100.00;98966.91;5065835;28;19967;-61
2021/07/11 02:49:07;;;;;;;;;;;;;;;20.02;100.00;98961.69;5063236;28;20465;-61
2021/07/11 02:51:37;;;;;;;;;;;;;;;20.09;100.00;98957.69;5064648;28;19912;-62
2021/07/11 02:54:03;;;;;;;;;;;;;;;20.02;100.00;98959.06;5063927;28;20367;-62
2021/07/11 02:56:28;;;;;;;;;;;;;;;20.25;100.00;98962.63;5057893;28;19913;-60
2021/07/11 02:58:55;;;;;;;;;;;;;;;20.74;100.00;98963.47;5054948;28;19912;-61
2021/07/11 03:01:21;;;;;;;;;;;;;;;20.64;100.00;98960.69;5050424;28;19996;-61
2021/07/11 03:03:46;;;;;;;;;;;;;;;20.54;100.00;98959.69;5048889;28;20075;-60
2021/07/11 03:06:12;;;;;;;;;;;;;;;19.81;100.00;98966.66;5059099;28;19917;-60
2021/07/11 03:08:37;;;;;;;;;;;;;;;20.54;100.00;98957.91;5054408;28;19970;-61
2021/07/11 03:11:03;;;;;;;;;;;;;;;20.87;100.00;98964.25;5063296;28;19924;-62
2021/07/11 03:13:30;;;;;;;;;;;;;;;20.73;100.00;98962.63;5063100;28;20414;-62
2021/07/11 03:15:55;;;;;;;;;;;;;;;20.58;100.00;98963.78;5057860;28;20366;-61
2021/07/11 03:18:21;;;;;;;;;;;;;;;19.96;100.00;98968.19;5058519;28;19917;-62
2021/07/11 03:20:46;;;;;;;;;;;;;;;19.46;100.00;98972.56;5073150;28;19913;-62
2021/07/11 03:23:12;;;;;;;;;;;;;;;19.46;100.00;98975.16;5061457;28;19913;-62
2021/07/11 03:25:38;;;;;;;;;;;;;;;19.29;100.00;98972.88;5066376;28;20064;-61
2021/07/11 03:28:06;;;;;;;;;;;;;;;19.00;100.00;98973.09;5045444;28;19917;-60
2021/07/11 03:30:36;;;;;;;;;;;;;;;19.18;100.00;98971.84;5054008;28;19912;-61
2021/07/11 03:33:02;;;;;;;;;;;;;;;19.00;100.00;98979.13;5055312;28;20366;-58
2021/07/11 03:35:30;;;;;;;;;;;;;;;18.63;100.00;98975.47;5062341;28;19999;-62
2021/07/11 03:37:56;;;;;;;;;;;;;;;19.11;100.00;98977.56;5063973;28;20169;-62
2021/07/11 03:40:24;;;;;;;;;;;;;;;18.02;100.00;98976.81;5064342;28;19916;-59
2021/07/11 03:42:51;;;;;;;;;;;;;;;17.93;100.00;98986.88;5062397;28;20366;-61
2021/07/11 03:45:16;;;;;;;;;;;;;;;17.79;100.00;98986.88;5057145;28;19913;-61
2021/07/11 03:47:47;;;;;;;;;;;;;;;17.71;100.00;98986.50;5059540;28;19917;-62
2021/07/11 03:50:12;;;;;;;;;;;;;;;18.69;100.00;98972.47;5052204;28;20437;-62
2021/07/11 03:52:42;;;;;;;;;;;;;;;18.14;100.00;98978.66;5070917;28;19938;-61
2021/07/11 03:55:08;;;;;;;;;;;;;;;19.07;100.00;98974.34;5060412;28;20007;-59
2021/07/11 03:57:34;;;;;;;;;;;;;;;19.85;100.00;98981.19;5040539;28;20577;-60
2021/07/11 03:59:59;;;;;;;;;;;;;;;20.26;100.00;98980.84;5068256;28;19920;-59
2021/07/11 04:02:25;;;;;;;;;;;;;;;20.11;100.00;98986.34;5058284;28;19920;-62
2021/07/11 04:04:51;;;;;;;;;;;;;;;20.19;100.00;98994.47;5067255;28;20302;-61
2021/07/11 04:07:18;;;;;;;;;;;;;;;20.14;100.00;99001.81;5062424;28;19963;-61
2021/07/11 04:09:44;;;;;;;;;;;;;;;20.31;100.00;99004.03;5052968;28;19963;-62
2021/07/11 04:12:10;;;;;;;;;;;;;;;20.22;100.00;99009.94;5069505;28;20212;-62
2021/07/11 04:14:35;;;;;;;;;;;;;;;20.40;100.00;99007.78;5069694;28;19991;-60
2021/07/11 04:17:02;;;;;;;;;;;;;;;19.57;100.00;99016.22;5064118;28;19913;-61
2021/07/11 04:19:28;;;;;;;;;;;;;;;19.70;100.00;99018.84;5048290;28;19935;-61
2021/07/11 04:21:54;;;;;;;;;;;;;;;19.85;100.00;99023.00;5045737;28;20006;-61
2021/07/11 04:24:20;;;;;;;;;;;;;;;19.55;100.00;99029.38;5077748;28;19995;-62
2021/07/11 04:26:46;;;;;;;;;;;;;;;19.25;100.00;99028.84;5066488;28;20015;-62
2021/07/11 04:29:11;;;;;;;;;;;;;;;19.20;100.00;99035.22;5061231;28;20373;-62
2021/07/11 04:31:37;;;;;;;;;;;;;;;19.56;100.00;99036.28;5064146;28;20626;-62
2021/07/11 04:34:05;;;;;;;;;;;;;;;20.03;100.00;99031.34;5071284;28;20003;-61
2021/07/11 04:36:31;;;;;;;;;;;;;;;20.20;100.00;99027.53;5058240;28;19913;-61
2021/07/11 04:38:56;;;;;;;;;;;;;;;18.64;100.00;99034.53;5053088;28;20293;-62
2021/07/11 04:41:22;;;;;;;;;;;;;;;18.56;100.00;99034.19;5063024;28;19912;-62
2021/07/11 04:43:48;;;;;;;;;;;;;;;17.90;100.00;99028.78;5067987;28;19919;-60
2021/07/11 04:46:14;;;;;;;;;;;;;;;18.80;100.00;99023.97;5068841;28;20350;-61
2021/07/11 04:48:39;;;;;;;;;;;;;;;19.35;100.00;99019.47;5058349;28;19924;-62
2021/07/11 04:51:06;;;;;;;;;;;;;;;19.51;100.00;99021.88;5056759;28;19920;-62
2021/07/11 04:53:32;;;;;;;;;;;;;;;19.14;100.00;99027.81;5062588;28;20426;-61
2021/07/11 04:55:57;;;;;;;;;;;;;;;19.99;100.00;99022.03;5061067;28;19923;-61
2021/07/11 04:58:23;;;;;;;;;;;;;;;19.05;100.00;99033.63;5060422;28;19913;-61
2021/07/11 05:00:48;;;;;;;;;;;;;;;19.54;100.00;99029.47;5062050;28;19921;-62
2021/07/11 05:03:14;;;;;;;;;;;;;;;19.21;100.00;99034.28;5058289;28;19925;-61
2021/07/11 05:05:39;;;;;;;;;;;;;;;18.91;100.00;99044.16;5060702;28;19967;-62
2021/07/11 05:08:05;;;;;;;;;;;;;;;19.24;100.00;99033.22;5063060;28;19948;-60
2021/07/11 05:10:31;;;;;;;;;;;;;;;19.33;100.00;99037.00;5045304;28;19991;-61
2021/07/11 05:12:56;;;;;;;;;;;;;;;19.33;100.00;99040.44;5060370;28;19921;-61
2021/07/11 05:15:22;;;;;;;;;;;;;;;19.03;100.00;99045.94;5073929;28;19923;-62
2021/07/11 05:17:49;;;;;;;;;;;;;;;18.63;100.00;99053.72;5042862;28;20035;-62
2021/07/11 05:20:14;;;;;;;;;;;;;;;18.87;100.00;99047.91;5044404;28;19916;-62
2021/07/11 05:22:40;;;;;;;;;;;;;;;18.63;100.00;99045.06;5064206;28;19916;-62
2021/07/11 05:25:06;;;;;;;;;;;;;;;18.24;100.00;99050.09;5073246;28;19924;-60
2021/07/11 05:27:32;;;;;;;;;;;;;;;18.97;100.00;99041.13;5061056;28;20503;-61
2021/07/11 05:29:57;;;;;;;;;;;;;;;18.91;100.00;99031.13;5063721;28;19916;-62
2021/07/11 05:32:23;;;;;;;;;;;;;;;19.27;100.00;99032.19;5062827;28;19912;-60
2021/07/11 05:34:49;;;;;;;;;;;;;;;19.43;100.00;99030.22;5062321;28;20400;-62
2021/07/11 05:37:14;;;;;;;;;;;;;;;18.93;100.00;99034.44;5058667;28;19913;-63
2021/07/11 05:39:40;;;;;;;;;;;;;;;18.47;100.00;99038.22;5061573;28;19916;-62
2021/07/11 05:42:05;;;;;;;;;;;;;;;19.32;100.00;99030.13;5057442;28;19921;-61
2021/07/11 05:44:31;;;;;;;;;;;;;;;19.92;100.00;99026.84;5044570;28;19924;-62
2021/07/11 05:46:56;;;;;;;;;;;;;;;19.43;100.00;99023.22;5063223;28;20004;-61
2021/07/11 05:49:21;;;;;;;;;;;;;;;18.76;100.00;99028.50;5062995;28;19924;-62
2021/07/11 05:51:47;;;;;;;;;;;;;;;19.21;100.00;99029.06;5063652;28;19916;-61
2021/07/11 05:54:12;;;;;;;;;;;;;;;19.57;100.00;99035.34;5058036;28;19936;-62
2021/07/11 05:56:37;;;;;;;;;;;;;;;19.74;100.00;99038.59;5061958;28;19924;-61
2021/07/11 05:59:03;;;;;;;;;;;;;;;20.42;100.00;99038.13;5061755;28;20007;-63
2021/07/11 06:01:28;;;;;;;;;;;;;;;20.32;100.00;99044.09;5063449;28;19958;-61
2021/07/11 06:03:54;;;;;;;;;;;;;;;20.40;100.00;99040.00;5059392;28;19921;-62
2021/07/11 06:06:19;;;;;;;;;;;;;;;20.14;100.00;99041.88;5062678;28;20445;-62
2021/07/11 06:08:45;;;;;;;;;;;;;;;20.48;100.00;99047.28;5059868;28;19919;-61
2021/07/11 06:11:10;;;;;;;;;;;;;;;20.78;100.00;99038.22;5060589;28;19917;-62
2021/07/11 06:13:35;;;;;;;;;;;;;;;20.74;100.00;99040.22;5057575;28;20497;-63
2021/07/11 06:16:01;;;;;;;;;;;;;;;20.87;100.00;99040.97;5055983;28;19977;-63
2021/07/11 06:18:26;;;;;;;;;;;;;;;20.78;100.00;99038.22;5059425;28;19913;-62
2021/07/11 06:20:51;;;;;;;;;;;;;;;20.94;100.00;99048.34;5061432;28;19920;-61
2021/07/11 06:23:17;;;;;;;;;;;;;;;20.96;100.00;99042.09;5055958;28;19923;-61
2021/07/11 06:25:42;;;;;;;;;;;;;;;20.72;100.00;99047.34;5059431;28;20011;-62
2021/07/11 06:28:08;;;;;;;;;;;;;;;20.78;100.00;99039.03;5056685;28;19963;-61
2021/07/11 06:30:33;;;;;;;;;;;;;;;20.34;100.00;99045.66;5063950;28;20000;-61
2021/07/11 06:32:59;;;;;;;;;;;;;;;20.36;100.00;99048.19;5063582;28;19916;-61
2021/07/11 06:35:24;;;;;;;;;;;;;;;19.95;100.00;99055.38;5062994;28;20841;-63
2021/07/11 06:37:50;;;;;;;;;;;;;;;19.87;100.00;99052.50;5058765;28;19919;-59
2021/07/11 06:40:17;;;;;;;;;;;;;;;20.21;100.00;99053.56;5059269;28;19921;-62
2021/07/11 06:42:42;;;;;;;;;;;;;;;19.07;100.00;99057.88;5056744;28;19913;-60
2021/07/11 06:45:08;;;;;;;;;;;;;;;18.51;100.00;99054.53;5063980;28;19917;-61
2021/07/11 06:47:33;;;;;;;;;;;;;;;19.17;100.00;99058.09;5059801;28;20390;-59
2021/07/11 06:49:59;;;;;;;;;;;;;;;19.47;100.00;99052.56;5061329;28;19971;-61
2021/07/11 06:52:24;;;;;;;;;;;;;;;19.57;100.00;99051.03;5061759;28;19920;-61
2021/07/11 06:54:51;;;;;;;;;;;;;;;19.16;100.00;99046.81;5063060;28;19936;-62
2021/07/11 06:57:19;;;;;;;;;;;;;;;19.87;100.00;99052.50;5064386;28;19916;-61
2021/07/11 06:59:44;;;;;;;;;;;;;;;20.49;100.00;99046.34;5065342;28;19920;-61
2021/07/11 07:02:10;;;;;;;;;;;;;;;21.12;100.00;99047.00;5066188;28;20759;-61
2021/07/11 07:04:35;;;;;;;;;;;;;;;19.35;100.00;99058.63;5058330;28;20382;-61
2021/07/11 07:07:01;;;;;;;;;;;;;;;20.22;100.00;99051.78;5062760;28;20819;-60
2021/07/11 07:09:27;;;;;;;;;;;;;;;20.11;100.00;99055.16;5060612;28;19921;-61
2021/07/11 07:11:52;;;;;;;;;;;;;;;20.01;100.00;99054.13;5064610;28;19919;-59
2021/07/11 07:14:18;;;;;;;;;;;;;;;20.39;100.00;99048.81;5060383;28;20308;-60
2021/07/11 07:16:44;;;;;;;;;;;;;;;20.18;100.00;99055.56;5059162;28;19913;-60
2021/07/11 07:19:10;;;;;;;;;;;;;;;20.15;100.00;99055.78;5065450;28;20518;-60
2021/07/11 07:21:35;;;;;;;;;;;;;;;19.87;100.00;99057.72;5066224;28;19928;-61
2021/07/11 07:24:01;;;;;;;;;;;;;;;20.40;100.00;99060.09;5060207;28;19923;-60
2021/07/11 07:26:26;;;;;;;;;;;;;;;21.14;100.00;99058.19;5054622;28;19919;-61
2021/07/11 07:28:52;;;;;;;;;;;;;;;21.57;100.00;99056.75;5062537;28;19948;-61
2021/07/11 07:31:17;;;;;;;;;;;;;;;20.31;100.00;99063.38;5061386;28;19944;-61
2021/07/11 07:33:43;;;;;;;;;;;;;;;20.58;100.00;99063.22;5068142;28;19971;-59
2021/07/11 07:36:08;;;;;;;;;;;;;;;20.80;100.00;99073.78;5064652;28;20497;-60
2021/07/11 07:38:33;;;;;;;;;;;;;;;20.39;100.00;99066.25;5073843;28;19919;-62
2021/07/11 07:40:59;;;;;;;;;;;;;;;21.68;100.00;99057.59;5069555;28;19912;-59
2021/07/11 07:43:24;;;;;;;;;;;;;;;22.09;100.00;99061.41;5053825;28;19920;-62
2021/07/11 07:45:49;;;;;;;;;;;;;;;22.20;100.00;99054.50;5053666;28;20382;-61
2021/07/11 07:48:15;;;;;;;;;;;;;;;20.66;100.00;99060.84;5053816;28;19970;-61
2021/07/11 07:50:40;;;;;;;;;;;;;;;22.04;100.00;99053.06;5059285;28;19931;-60
2021/07/11 07:53:06;;;;;;;;;;;;;;;21.24;100.00;99051.31;5073834;28;20332;-62
2021/07/11 07:55:32;;;;;;;;;;;;;;;20.72;100.00;99055.19;5061946;28;20297;-62
2021/07/11 07:57:58;;;;;;;;;;;;;;;20.47;100.00;99056.91;5053162;28;19920;-61
2021/07/11 08:00:24;;;;;;;;;;;;;;;21.57;100.00;99056.75;5055824;28;20418;-61
2021/07/11 08:02:50;;;;;;;;;;;;;;;21.19;100.00;99050.84;5051635;28;20294;-61
2021/07/11 08:05:15;;;;;;;;;;;;;;;22.57;100.00;99051.56;5054398;28;19921;-60
2021/07/11 08:07:41;;;;;;;;;;;;;;;22.49;100.00;99055.66;5050491;28;19963;-61
2021/07/11 08:10:07;;;;;;;;;;;;;;;22.39;100.00;99059.13;5060518;28;20050;-62
2021/07/11 08:12:32;;;;;;;;;;;;;;;21.88;100.00;99060.47;5050937;28;19917;-61
2021/07/11 08:14:58;;;;;;;;;;;;;;;21.20;100.00;99067.38;5052973;28;19917;-60
2021/07/11 08:17:23;;;;;;;;;;;;;;;21.47;100.00;99069.75;5066677;28;20418;-61
2021/07/11 08:19:49;;;;;;;;;;;;;;;22.19;100.00;99063.31;5053300;28;19917;-61
2021/07/11 08:22:14;;;;;;;;;;;;;;;20.92;100.00;99071.22;5066699;28;20299;-62
2021/07/11 08:24:40;;;;;;;;;;;;;;;22.90;100.00;99069.84;5051325;28;19925;-59
2021/07/11 08:27:05;;;;;;;;;;;;;;;21.55;100.00;99074.38;5066898;28;19916;-59
2021/07/11 08:29:31;;;;;;;;;;;;;;;22.59;100.00;99076.75;5067217;28;19912;-62
2021/07/11 08:31:56;;;;;;;;;;;;;;;21.46;100.00;99083.78;5058153;28;20390;-60
2021/07/11 08:34:21;;;;;;;;;;;;;;;22.76;100.00;99067.47;5059634;28;20007;-60
2021/07/11 08:36:47;;;;;;;;;;;;;;;23.14;100.00;99068.78;5064126;28;19963;-61
2021/07/11 08:39:12;;;;;;;;;;;;;;;21.39;100.00;99072.06;5059184;28;19913;-61
2021/07/11 08:41:38;;;;;;;;;;;;;;;22.00;100.00;99070.00;5059011;28;19919;-61
2021/07/11 08:44:03;;;;;;;;;;;;;;;21.65;100.00;99078.81;5060048;28;19921;-61
2021/07/11 08:46:28;;;;;;;;;;;;;;;22.04;100.00;99081.91;5061731;28;20378;-60
2021/07/11 08:48:54;;;;;;;;;;;;;;;22.46;100.00;99076.06;5059588;28;19917;-61
2021/07/11 08:51:19;;;;;;;;;;;;;;;23.09;100.00;99073.59;5064802;28;19977;-60
2021/07/11 08:53:45;;;;;;;;;;;;;;;23.75;100.00;99074.16;5059665;28;19913;-60
2021/07/11 08:56:18;;;;;;;;;;;;;;;22.55;100.00;99070.88;5058530;28;19912;-60
2021/07/11 08:58:44;;;;;;;;;;;;;;;23.11;100.00;99072.50;5050332;28;19935;-62
2021/07/11 09:01:09;;;;;;;;;;;;;;;23.75;100.00;99071.53;5059788;28;20373;-62
2021/07/11 09:03:35;;;;;;;;;;;;;;;25.34;100.00;99058.38;5060322;28;19927;-61
2021/07/11 09:06:00;;;;;;;;;;;;;;;25.20;91.01;99070.19;5063355;28;20408;-62
2021/07/11 09:08:25;;;;;;;;;;;;;;;25.26;91.37;99074.06;5057089;28;19923;-62
2021/07/11 09:11:02;;;;;;;;;;;;;;;25.55;92.23;99073.19;5061344;28;19919;-62
2021/07/11 09:13:28;;;;;;;;;;;;;;;25.51;94.43;99063.88;5059610;28;20007;-60
2021/07/11 09:15:55;;;;;;;;;;;;;;;24.31;92.98;99072.84;5064452;28;20707;-60
2021/07/11 09:18:23;;;;;;;;;;;;;;;25.00;93.17;99069.34;5060617;28;20503;-62
2021/07/11 09:20:51;;;;;;;;;;;;;;;23.97;99.98;99074.94;5057142;28;19943;-61
2021/07/11 09:23:17;;;;;;;;;;;;;;;25.58;92.70;99062.34;5059163;28;19920;-61
2021/07/11 09:25:42;;;;;;;;;;;;;;;25.53;88.15;99059.31;5060894;28;19917;-61
2021/07/11 09:28:11;;;;;;;;;;;;;;;26.45;85.16;99058.47;5059829;28;19916;-61
2021/07/11 09:30:38;;;;;;;;;;;;;;;26.42;85.96;99058.78;5059858;28;19938;-62
2021/07/11 09:33:03;;;;;;;;;;;;;;;26.77;82.70;99062.44;5059755;28;19919;-62
2021/07/11 09:35:28;;;;;;;;;;;;;;;26.43;86.37;99065.72;5061796;28;19913;-61
2021/07/11 09:37:55;;;;;;;;;;;;;;;27.02;82.10;99064.31;5057868;28;19922;-66
2021/07/11 09:40:21;;;;;;;;;;;;;;;25.54;85.83;99068.88;5054916;28;19963;-68
2021/07/11 09:42:48;;;;;;;;;;;;;;;27.02;82.22;99074.88;5056659;28;20382;-68
2021/07/11 09:45:16;;;;;;;;;;;;;;;25.87;90.15;99076.28;5058593;28;19925;-69
2021/07/11 09:47:42;;;;;;;;;;;;;;;24.24;95.44;99081.41;5055302;28;19928;-68
2021/07/11 09:50:15;;;;;;;;;;;;;;;25.56;91.54;99075.66;5043333;28;20378;-69
2021/07/11 09:52:42;;;;;;;;;;;;;;;26.31;85.04;99075.66;5047805;28;19920;-69
2021/07/11 09:55:09;;;;;;;;;;;;;;;25.71;83.47;99076.03;5056807;28;19940;-69
2021/07/11 09:57:36;;;;;;;;;;;;;;;25.33;92.41;99069.88;5055311;28;20527;-69
2021/07/11 10:00:06;;;;;;;;;;;;;;;26.95;84.16;99067.72;5053959;28;19920;-69
2021/07/11 10:02:31;;;;;;;;;;;;;;;27.20;73.12;99072.25;5055090;28;20313;-68
2021/07/11 10:04:56;;;;;;;;;;;;;;;27.28;78.97;99069.69;5052952;28;19921;-69
2021/07/11 10:07:22;;;;;;;;;;;;;;;26.02;78.96;99071.38;5058619;28;19970;-69
2021/07/11 10:09:47;;;;;;;;;;;;;;;26.21;86.27;99075.72;5057021;28;19946;-69
2021/07/11 10:12:13;;;;;;;;;;;;;;;25.02;86.52;99071.81;5056736;28;19920;-69
2021/07/11 10:14:39;;;;;;;;;;;;;;;25.71;87.98;99078.69;5058631;28;20017;-71
2021/07/11 10:17:04;;;;;;;;;;;;;;;25.10;90.39;99076.41;5060229;28;20267;-69
2021/07/11 10:19:30;;;;;;;;;;;;;;;23.96;93.09;99081.19;5058027;28;19916;-69
2021/07/11 10:21:55;;;;;;;;;;;;;;;24.63;93.75;99077.94;5055867;28;19924;-69
2021/07/11 10:24:21;;;;;;;;;;;;;;;25.83;84.67;99080.16;5058007;28;20385;-69
2021/07/11 10:26:47;;;;;;;;;;;;;;;23.93;96.23;99084.91;5058788;28;20491;-69
2021/07/11 10:29:13;;;;;;;;;;;;;;;24.42;91.79;99088.50;5059120;28;19916;-69
2021/07/11 10:31:47;;;;;;;;;;;;;;;24.87;88.55;99078.50;5053400;28;19943;-69
2021/07/11 10:34:24;;;;;;;;;;;;;;;24.47;90.82;99087.28;5057984;28;19962;-69
2021/07/11 10:36:49;;;;;;;;;;;;;;;26.43;84.60;99090.31;5057827;28;19936;-69
2021/07/11 10:39:15;;;;;;;;;;;;;;;26.41;85.80;99086.16;5059407;28;19920;-69
2021/07/11 10:42:10;;;;;;;;;;;;;;;24.99;83.40;99077.38;5059622;28;19921;-69
2021/07/11 10:44:36;;;;;;;;;;;;;;;25.19;88.80;99079.06;5058769;28;19924;-69
2021/07/11 10:47:02;;;;;;;;;;;;;;;24.43;96.26;99082.28;5056889;28;19913;-69
2021/07/11 10:49:31;;;;;;;;;;;;;;;26.05;85.35;99080.81;5061020;28;19924;-68
2021/07/11 10:51:58;;;;;;;;;;;;;;;24.52;92.86;99087.72;5059750;28;19920;-68
2021/07/11 10:54:30;;;;;;;;;;;;;;;24.12;96.84;99089.41;5055821;28;19958;-70
2021/07/11 10:56:59;;;;;;;;;;;;;;;24.74;93.22;99078.75;5059335;28;19925;-69
2021/07/11 10:59:25;;;;;;;;;;;;;;;26.52;79.98;99080.66;5056417;28;20412;-69
2021/07/11 11:01:51;;;;;;;;;;;;;;;25.82;81.24;99085.59;5055905;28;20011;-69
2021/07/11 11:04:16;;;;;;;;;;;;;;;24.94;84.66;99085.69;5057260;28;20097;-69
2021/07/11 11:06:42;;;;;;;;;;;;;;;25.64;85.45;99082.88;5058070;28;20010;-70
2021/07/11 11:09:08;;;;;;;;;;;;;;;26.28;79.79;99092.63;5057713;28;20026;-70
2021/07/11 11:11:34;;;;;;;;;;;;;;;26.37;79.00;99083.00;5057611;28;19920;-69
2021/07/11 11:14:03;;;;;;;;;;;;;;;25.03;78.99;99095.41;5058062;28;20380;-69
2021/07/11 11:16:31;;;;;;;;;;;;;;;23.60;97.79;99093.84;5059533;28;20373;-69
2021/07/11 11:18:56;;;;;;;;;;;;;;;23.63;94.37;99098.00;5058721;28;19931;-69
2021/07/11 11:21:22;;;;;;;;;;;;;;;23.47;96.95;99103.72;5058171;28;19920;-69
2021/07/11 11:23:52;;;;;;;;;;;;;;;23.36;100.00;99096.75;5060814;28;20330;-69
2021/07/11 11:26:27;;;;;;;;;;;;;;;23.86;95.44;99099.56;5057729;28;19920;-70
2021/07/11 11:28:55;;;;;;;;;;;;;;;24.19;94.87;99085.28;5060508;28;19931;-69
2021/07/11 11:31:33;;;;;;;;;;;;;;;23.77;93.98;99082.75;5059867;28;19965;-69
2021/07/11 11:33:59;;;;;;;;;;;;;;;24.27;86.70;99086.41;5059930;28;19920;-69
2021/07/11 11:36:26;;;;;;;;;;;;;;;24.81;90.70;99080.72;5060016;28;19928;-69
2021/07/11 11:38:52;;;;;;;;;;;;;;;25.18;87.50;99077.41;5058116;28;19928;-69
2021/07/11 11:41:18;;;;;;;;;;;;;;;24.17;93.27;99092.47;5060102;28;20015;-69
2021/07/11 11:43:44;;;;;;;;;;;;;;;24.26;94.06;99092.63;5063676;28;19960;-69
2021/07/11 11:46:10;;;;;;;;;;;;;;;23.99;94.91;99087.03;5063784;28;20270;-69
2021/07/11 11:48:36;;;;;;;;;;;;;;;23.63;97.91;99087.50;5063786;28;19924;-69
2021/07/11 11:51:05;;;;;;;;;;;;;;;23.65;100.00;99085.56;5063311;28;19965;-69
2021/07/11 11:53:41;;;;;;;;;;;;;;;24.15;96.13;99094.41;5062749;28;20450;-69
2021/07/11 11:56:06;;;;;;;;;;;;;;;24.03;95.22;99092.84;5061495;28;20066;-69
2021/07/11 11:58:32;;;;;;;;;;;;;;;24.19;94.29;99090.53;5063006;28;20002;-69
2021/07/11 12:01:00;;;;;;;;;;;;;;;24.47;93.37;99090.78;5061937;28;20027;-69
2021/07/11 12:03:25;;;;;;;;;;;;;;;23.71;97.07;99091.13;5061631;28;20007;-69
2021/07/11 12:05:51;;;;;;;;;;;;;;;24.01;95.13;99092.97;5063992;28;20069;-69
2021/07/11 12:08:16;;;;;;;;;;;;;;;23.34;100.00;99093.41;5061851;28;19928;-70
2021/07/11 12:10:42;;;;;;;;;;;;;;;23.28;100.00;99096.53;5061821;28;19925;-65
2021/07/11 12:13:07;;;;;;;;;;;;;;;22.97;100.00;99091.19;5060188;28;19938;-69
2021/07/11 12:15:34;;;;;;;;;;;;;;;22.86;100.00;99094.69;5063071;28;19913;-68
2021/07/11 12:18:01;;;;;;;;;;;;;;;23.63;100.00;99092.75;5063097;28;19936;-71
2021/07/11 12:20:26;;;;;;;;;;;;;;;23.02;100.00;99096.09;5062803;28;19931;-69
2021/07/11 12:22:52;;;;;;;;;;;;;;;22.75;100.00;99102.59;5061228;28;19916;-69
2021/07/11 12:25:20;;;;;;;;;;;;;;;23.18;100.00;99091.22;5060711;28;20447;-69
2021/07/11 12:27:48;;;;;;;;;;;;;;;23.05;100.00;99099.28;5060970;28;20947;-69
2021/07/11 12:30:18;;;;;;;;;;;;;;;23.35;100.00;99095.06;5062551;28;19916;-69
2021/07/11 12:32:47;;;;;;;;;;;;;;;24.14;99.83;99094.53;5059724;28;19925;-69